Time;durP1;ratioP1;P1;durP2;ratioP2;P2;SDS_P1;SDS_P2;PMS_P1;PMS_P2;Temp;Humidity;BMP_temperature;BMP_pressure;BME280_temperature;BME280_humidity;BME280_pressure;Samples;Min_cycle;Max_cycle;Signal;HPM_P1;HPM_P2
2023/06/30 00:00:55;;;;;;;22.55;10.65;;;;;;;15.98;100.00;101152.00;6221076;23;20011;-76
2023/06/30 00:03:22;;;;;;;23.00;12.35;;;;;;;16.09;100.00;101159.25;6247819;23;20038;-76
2023/06/30 00:05:48;;;;;;;24.77;12.77;;;;;;;16.17;100.00;101159.38;6246152;23;20019;-76
2023/06/30 00:08:13;;;;;;;25.27;11.65;;;;;;;16.03;100.00;101154.31;6196010;23;20012;-76
2023/06/30 00:10:39;;;;;;;27.08;13.02;;;;;;;16.08;100.00;101147.31;6248003;23;20358;-76
2023/06/30 00:13:04;;;;;;;19.33;11.55;;;;;;;16.12;100.00;101156.19;6196174;23;20012;-76
2023/06/30 00:15:30;;;;;;;23.67;12.20;;;;;;;16.11;100.00;101160.81;6221710;23;20014;-76
2023/06/30 00:17:55;;;;;;;22.73;12.02;;;;;;;16.11;100.00;101141.50;6170785;23;20317;-76
2023/06/30 00:20:23;;;;;;;28.48;13.77;;;;;;;16.14;100.00;101154.16;6146748;23;20017;-76
2023/06/30 00:22:49;;;;;;;26.92;12.45;;;;;;;16.07;100.00;101162.16;6186941;23;20005;-75
2023/06/30 00:25:14;;;;;;;24.80;13.18;;;;;;;16.17;100.00;101153.84;6186620;23;20009;-75
2023/06/30 00:27:39;;;;;;;26.60;13.20;;;;;;;16.10;100.00;101148.06;6160524;23;20084;-75
2023/06/30 00:30:06;;;;;;;27.58;12.25;;;;;;;16.15;100.00;101150.34;6160336;23;20017;-76
2023/06/30 00:32:32;;;;;;;34.35;13.23;;;;;;;16.14;100.00;101151.38;6160596;23;20017;-75
2023/06/30 00:34:58;;;;;;;27.00;13.35;;;;;;;16.15;100.00;101142.94;6186895;23;20016;-74
2023/06/30 00:37:25;;;;;;;38.03;14.60;;;;;;;16.04;100.00;101134.84;6185628;23;20457;-74
2023/06/30 00:39:50;;;;;;;28.33;12.07;;;;;;;15.92;100.00;101139.69;6186997;23;20087;-74
2023/06/30 00:42:16;;;;;;;24.00;11.27;;;;;;;15.93;100.00;101135.00;6186895;23;20046;-75
2023/06/30 00:44:41;;;;;;;18.77;12.07;;;;;;;15.94;100.00;101142.28;6186925;23;20016;-74
2023/06/30 00:47:07;;;;;;;25.20;11.25;;;;;;;15.85;100.00;101144.03;6136182;23;20028;-74
2023/06/30 00:49:33;;;;;;;21.13;12.02;;;;;;;15.85;100.00;101133.00;6160025;23;20345;-74
2023/06/30 00:52:04;;;;;;;29.58;11.93;;;;;;;15.95;100.00;101136.63;6186834;23;20047;-74
2023/06/30 00:54:29;;;;;;;24.05;12.25;;;;;;;15.92;100.00;101141.53;6186195;23;20013;-74
2023/06/30 00:56:58;;;;;;;23.60;12.02;;;;;;;15.89;100.00;101137.22;6186183;23;20278;-75
2023/06/30 00:59:23;;;;;;;26.45;12.60;;;;;;;15.84;100.00;101142.31;6160262;23;20016;-75
2023/06/30 01:01:56;;;;;;;21.25;11.32;;;;;;;15.68;100.00;101144.78;6159961;23;20087;-74
2023/06/30 01:04:31;;;;;;;25.52;11.35;;;;;;;15.69;100.00;101139.13;6184552;23;20041;-74
2023/06/30 01:07:17;;;;;;;35.47;11.30;;;;;;;15.65;100.00;101145.94;6186234;23;20028;-74
2023/06/30 01:09:53;;;;;;;25.70;12.05;;;;;;;15.64;100.00;101155.22;6155151;23;20009;-76
2023/06/30 01:12:19;;;;;;;23.48;9.95;;;;;;;15.46;100.00;101149.56;6159860;23;20005;-76
2023/06/30 01:14:47;;;;;;;37.25;14.23;;;;;;;15.67;100.00;101157.69;6185191;23;20413;-76
2023/06/30 01:17:15;;;;;;;27.25;10.85;;;;;;;15.53;100.00;101158.16;6210303;23;20368;-76
2023/06/30 01:19:44;;;;;;;20.90;10.95;;;;;;;15.58;100.00;101162.22;6207689;23;20016;-76
2023/06/30 01:22:39;;;;;;;26.48;10.63;;;;;;;15.63;100.00;101161.78;6219955;23;20424;-76
2023/06/30 01:25:09;;;;;;;22.70;9.95;;;;;;;15.62;100.00;101160.88;6220021;23;20482;-76
2023/06/30 01:27:36;;;;;;;33.67;10.00;;;;;;;15.48;100.00;101152.19;6219958;23;20054;-76
2023/06/30 01:30:05;;;;;;;27.90;10.52;;;;;;;15.49;100.00;101149.28;6220318;23;20013;-75
2023/06/30 01:32:31;;;;;;;20.05;9.80;;;;;;;15.59;100.00;101158.44;6220004;23;20087;-76
2023/06/30 01:34:57;;;;;;;24.30;10.95;;;;;;;15.63;100.00;101151.59;6220129;23;20012;-76
2023/06/30 01:37:22;;;;;;;23.75;9.23;;;;;;;15.48;100.00;101143.91;6219883;23;20008;-76
2023/06/30 01:39:47;;;;;;;25.95;10.23;;;;;;;15.58;100.00;101131.00;6219874;23;20321;-76
2023/06/30 01:42:13;;;;;;;36.10;9.50;;;;;;;15.49;100.00;101138.25;6246618;23;20009;-76
2023/06/30 01:44:40;;;;;;;21.25;10.02;;;;;;;15.46;100.00;101144.06;6194846;23;20034;-76
2023/06/30 01:47:07;;;;;;;31.20;9.05;;;;;;;15.42;100.00;101134.34;6219550;23;20087;-76
2023/06/30 01:49:34;;;;;;;17.40;8.05;;;;;;;15.42;100.00;101124.16;6220161;23;20018;-76
2023/06/30 01:52:00;;;;;;;28.58;8.82;;;;;;;15.38;100.00;101121.84;6246590;23;20043;-76
2023/06/30 01:54:25;;;;;;;24.27;7.60;;;;;;;15.25;100.00;101117.50;6246566;23;20079;-76
2023/06/30 01:56:51;;;;;;;28.08;7.65;;;;;;;15.21;100.00;101120.69;6219924;23;20087;-76
2023/06/30 01:59:16;;;;;;;21.02;7.07;;;;;;;15.24;100.00;101125.94;6194766;23;20105;-76
2023/06/30 02:01:42;;;;;;;20.30;7.43;;;;;;;15.23;100.00;101118.66;6219710;23;20008;-76
2023/06/30 02:04:09;;;;;;;30.60;8.02;;;;;;;15.16;100.00;101121.13;6219608;23;20095;-76
2023/06/30 02:06:34;;;;;;;24.55;6.97;;;;;;;15.18;100.00;101116.34;6219490;23;20012;-76
2023/06/30 02:09:00;;;;;;;36.45;8.35;;;;;;;15.09;100.00;101124.63;6194396;23;20098;-76
2023/06/30 02:11:26;;;;;;;41.22;8.48;;;;;;;15.03;100.00;101115.03;6219641;23;20074;-76
2023/06/30 02:13:51;;;;;;;22.35;7.10;;;;;;;15.13;100.00;101124.16;6246571;23;20042;-76
2023/06/30 02:16:17;;;;;;;21.10;7.65;;;;;;;14.94;100.00;101110.38;6219091;23;20016;-76
2023/06/30 02:18:43;;;;;;;31.15;7.53;;;;;;;15.06;100.00;101123.03;6194244;23;20448;-76
2023/06/30 02:21:08;;;;;;;15.82;6.85;;;;;;;15.10;100.00;101127.22;6219368;23;20420;-74
2023/06/30 02:23:33;;;;;;;22.90;6.63;;;;;;;14.96;100.00;101119.38;6219649;23;20012;-74
2023/06/30 02:26:02;;;;;;;21.83;6.93;;;;;;;14.99;100.00;101133.75;6194176;23;20015;-75
2023/06/30 02:28:27;;;;;;;24.95;7.22;;;;;;;14.97;100.00;101140.41;6169966;23;20336;-74
2023/06/30 02:30:53;;;;;;;22.05;6.40;;;;;;;14.89;100.00;101132.88;6194530;23;20046;-75
2023/06/30 02:33:19;;;;;;;20.17;6.97;;;;;;;14.80;100.00;101129.06;6194538;23;20012;-74
2023/06/30 02:35:44;;;;;;;24.17;6.38;;;;;;;14.79;100.00;101132.88;6219438;23;20016;-75
2023/06/30 02:38:10;;;;;;;20.20;7.57;;;;;;;14.97;100.00;101134.91;6194552;23;20254;-75
2023/06/30 02:40:36;;;;;;;27.85;7.60;;;;;;;14.97;100.00;101137.66;6246020;23;20332;-75
2023/06/30 02:43:01;;;;;;;23.25;7.55;;;;;;;14.86;100.00;101139.53;6193768;23;20019;-75
2023/06/30 02:45:27;;;;;;;37.20;8.88;;;;;;;14.95;100.00;101150.72;6219439;23;20015;-75
2023/06/30 02:47:52;;;;;;;20.10;7.60;;;;;;;14.86;100.00;101150.56;6169070;23;20014;-75
2023/06/30 02:50:18;;;;;;;29.85;8.13;;;;;;;14.83;100.00;101156.34;6219066;23;20026;-75
2023/06/30 02:52:44;;;;;;;26.85;8.23;;;;;;;14.93;100.00;101163.78;6245902;23;20008;-75
2023/06/30 02:55:09;;;;;;;24.55;8.35;;;;;;;14.83;100.00;101163.78;6246901;23;20043;-75
2023/06/30 02:57:34;;;;;;;29.02;9.23;;;;;;;14.82;100.00;101170.28;6169520;23;20016;-75
2023/06/30 03:00:00;;;;;;;21.40;8.95;;;;;;;14.73;100.00;101161.00;6219273;23;20378;-75
2023/06/30 03:02:25;;;;;;;23.48;7.82;;;;;;;14.60;100.00;101166.75;6245809;23;20008;-75
2023/06/30 03:04:51;;;;;;;25.50;8.75;;;;;;;14.68;100.00;101160.53;6194331;23;20376;-75
2023/06/30 03:07:16;;;;;;;26.75;8.73;;;;;;;14.69;100.00;101156.75;6245981;23;20074;-75
2023/06/30 03:09:43;;;;;;;27.45;8.10;;;;;;;14.63;100.00;101154.59;6219326;23;20039;-75
2023/06/30 03:12:09;;;;;;;19.58;8.10;;;;;;;14.56;100.00;101157.00;6245545;23;20012;-75
2023/06/30 03:14:34;;;;;;;20.52;8.02;;;;;;;14.69;100.00;101163.16;6245703;23;20083;-75
2023/06/30 03:17:00;;;;;;;22.85;9.05;;;;;;;14.60;100.00;101158.47;6193962;23;20102;-76
2023/06/30 03:19:25;;;;;;;29.20;8.80;;;;;;;14.77;100.00;101158.81;6245450;23;20364;-75
2023/06/30 03:21:51;;;;;;;24.27;7.90;;;;;;;14.61;100.00;101163.00;6245697;23;20012;-75
2023/06/30 03:24:16;;;;;;;28.38;8.18;;;;;;;14.72;100.00;101150.09;6194038;23;20026;-75
2023/06/30 03:26:42;;;;;;;30.92;9.30;;;;;;;14.54;100.00;101147.97;6245581;23;20034;-75
2023/06/30 03:29:07;;;;;;;31.42;9.60;;;;;;;14.58;100.00;101148.59;6194030;23;20020;-76
2023/06/30 03:31:33;;;;;;;22.35;7.53;;;;;;;14.44;100.00;101145.19;6218834;23;20016;-75
2023/06/30 03:33:59;;;;;;;26.35;7.00;;;;;;;14.38;100.00;101147.63;6219156;23;20016;-75
2023/06/30 03:36:24;;;;;;;24.33;7.38;;;;;;;14.46;100.00;101142.28;6245717;23;20408;-75
2023/06/30 03:38:50;;;;;;;16.90;7.13;;;;;;;14.47;100.00;101146.81;6169019;23;20019;-75
2023/06/30 03:41:15;;;;;;;29.02;7.50;;;;;;;14.40;100.00;101148.38;6245567;23;20011;-75
2023/06/30 03:43:41;;;;;;;28.33;8.85;;;;;;;14.48;100.00;101137.53;6219082;23;20533;-75
2023/06/30 03:46:09;;;;;;;27.73;9.10;;;;;;;14.42;100.00;101143.59;6218816;23;20008;-75
2023/06/30 03:48:35;;;;;;;19.95;7.72;;;;;;;14.49;100.00;101131.91;6244706;23;20004;-75
2023/06/30 03:51:00;;;;;;;28.25;7.47;;;;;;;14.29;100.00;101124.56;6193670;23;20019;-76
2023/06/30 03:53:26;;;;;;;23.35;8.38;;;;;;;14.32;100.00;101127.91;6218980;23;20062;-75
2023/06/30 03:55:51;;;;;;;23.73;7.50;;;;;;;14.37;100.00;101130.25;6193619;23;20016;-76
2023/06/30 03:58:17;;;;;;;28.17;7.75;;;;;;;14.27;100.00;101121.06;6219015;23;20024;-76
2023/06/30 04:00:42;;;;;;;21.80;7.40;;;;;;;14.19;100.00;101119.00;6193513;23;20012;-75
2023/06/30 04:03:08;;;;;;;19.17;7.10;;;;;;;14.14;100.00;101127.69;6193704;23;20246;-75
2023/06/30 04:05:33;;;;;;;27.63;7.93;;;;;;;14.21;100.00;101127.13;6218798;23;20443;-75
2023/06/30 04:07:58;;;;;;;24.25;7.78;;;;;;;14.10;100.00;101125.34;6245482;23;20007;-75
2023/06/30 04:10:24;;;;;;;23.25;7.78;;;;;;;14.16;100.00;101128.41;6218844;23;20087;-75
2023/06/30 04:12:49;;;;;;;21.35;7.97;;;;;;;14.24;100.00;101132.38;6168738;23;20017;-75
2023/06/30 04:15:15;;;;;;;26.20;9.05;;;;;;;14.11;100.00;101138.09;6218599;23;20012;-76
2023/06/30 04:17:40;;;;;;;18.10;7.75;;;;;;;14.08;100.00;101132.88;6218891;23;20016;-75
2023/06/30 04:20:08;;;;;;;17.27;7.20;;;;;;;14.05;100.00;101142.28;6193329;23;20069;-75
2023/06/30 04:22:35;;;;;;;24.45;8.07;;;;;;;14.03;100.00;101137.91;6218524;23;20420;-75
2023/06/30 04:25:00;;;;;;;27.48;8.52;;;;;;;14.20;100.00;101144.66;6218535;23;20413;-76
2023/06/30 04:27:26;;;;;;;35.00;8.90;;;;;;;14.24;100.00;101137.88;6245617;23;20015;-75
2023/06/30 04:29:51;;;;;;;22.67;7.65;;;;;;;14.15;100.00;101147.84;6218454;23;20031;-75
2023/06/30 04:32:17;;;;;;;21.48;8.88;;;;;;;14.14;100.00;101144.19;6170485;23;20020;-75
2023/06/30 04:34:42;;;;;;;32.83;10.18;;;;;;;14.26;100.00;101146.88;6247323;23;20082;-75
2023/06/30 04:37:08;;;;;;;28.40;8.23;;;;;;;14.12;100.00;101143.47;6220303;23;20008;-75
2023/06/30 04:39:35;;;;;;;21.85;7.43;;;;;;;14.28;100.00;101133.81;6195546;23;20009;-74
2023/06/30 04:42:00;;;;;;;20.98;8.10;;;;;;;14.21;100.00;101130.75;6220540;23;20315;-74
2023/06/30 04:44:25;;;;;;;18.73;7.45;;;;;;;14.20;100.00;101131.78;6221037;23;20035;-74
2023/06/30 04:46:51;;;;;;;16.75;7.82;;;;;;;14.25;100.00;101139.59;6195739;23;20090;-74
2023/06/30 04:49:16;;;;;;;23.70;8.30;;;;;;;14.36;100.00;101135.88;6195465;23;20016;-74
2023/06/30 04:51:41;;;;;;;26.63;8.05;;;;;;;14.35;100.00;101135.03;6247078;23;20022;-74
2023/06/30 04:54:07;;;;;;;17.83;6.25;;;;;;;14.17;100.00;101137.56;6220215;23;20095;-74
2023/06/30 04:56:32;;;;;;;20.27;6.35;;;;;;;14.37;100.00;101146.78;6220568;23;20040;-75
2023/06/30 04:58:58;;;;;;;19.42;7.22;;;;;;;14.40;100.00;101143.75;6195448;23;20382;-74
2023/06/30 05:01:23;;;;;;;20.65;5.85;;;;;;;14.36;100.00;101142.25;6195541;23;20011;-75
2023/06/30 05:03:49;;;;;;;17.27;5.88;;;;;;;14.46;100.00;101145.94;6220313;23;20071;-75
2023/06/30 05:06:14;;;;;;;17.55;6.18;;;;;;;14.47;100.00;101142.16;6196008;23;20015;-75
2023/06/30 05:08:40;;;;;;;19.95;5.95;;;;;;;14.55;100.00;101146.97;6170989;23;20066;-75
2023/06/30 05:11:05;;;;;;;26.33;6.57;;;;;;;14.56;100.00;101148.72;6220895;23;20138;-75
2023/06/30 05:13:31;;;;;;;21.02;7.35;;;;;;;14.63;100.00;101155.44;6220330;23;20424;-74
2023/06/30 05:15:56;;;;;;;21.65;6.53;;;;;;;14.68;100.00;101152.28;6170001;23;20322;-74
2023/06/30 05:18:22;;;;;;;26.77;6.90;;;;;;;14.65;100.00;101150.66;6220041;23;20017;-74
2023/06/30 05:20:47;;;;;;;21.75;7.60;;;;;;;14.72;100.00;101150.09;6244889;23;20023;-75
2023/06/30 05:23:13;;;;;;;21.48;7.32;;;;;;;14.96;100.00;101145.06;6219983;23;20444;-74
2023/06/30 05:25:38;;;;;;;15.13;6.00;;;;;;;14.98;100.00;101139.41;6220079;23;20039;-74
2023/06/30 05:28:04;;;;;;;27.88;7.57;;;;;;;15.12;100.00;101144.50;6219751;23;20016;-75
2023/06/30 05:30:29;;;;;;;23.33;6.78;;;;;;;15.18;100.00;101132.91;6219649;23;20070;-75
2023/06/30 05:32:55;;;;;;;15.23;6.60;;;;;;;15.27;100.00;101139.44;6220223;23;20012;-75
2023/06/30 05:35:20;;;;;;;20.80;6.50;;;;;;;15.39;100.00;101135.50;6170017;23;20371;-74
2023/06/30 05:37:46;;;;;;;19.30;7.70;;;;;;;15.49;100.00;101137.38;6195145;23;20012;-75
2023/06/30 05:40:12;;;;;;;22.75;6.65;;;;;;;15.65;100.00;101136.78;6195123;23;20012;-75
2023/06/30 05:42:37;;;;;;;31.08;7.55;;;;;;;15.91;100.00;101137.06;6219158;23;20074;-75
2023/06/30 05:45:03;;;;;;;18.27;6.88;;;;;;;16.11;100.00;101140.63;6246759;23;20012;-74
2023/06/30 05:47:29;;;;;;;17.85;6.45;;;;;;;16.20;100.00;101141.59;6219466;23;20077;-75
2023/06/30 05:49:54;;;;;;;19.85;7.22;;;;;;;16.27;100.00;101148.28;6169625;23;20645;-74
2023/06/30 05:52:24;;;;;;;21.35;7.75;;;;;;;16.13;100.00;101142.22;6169572;23;20016;-75
2023/06/30 05:54:50;;;;;;;14.82;6.72;;;;;;;16.65;100.00;101138.06;6247031;23;20383;-75
2023/06/30 05:57:16;;;;;;;15.15;6.55;;;;;;;16.73;100.00;101147.31;6219873;23;20016;-75
2023/06/30 05:59:41;;;;;;;21.45;7.20;;;;;;;16.56;100.00;101138.97;6219758;23;20008;-75
2023/06/30 06:02:07;;;;;;;20.98;6.70;;;;;;;16.60;100.00;101138.50;6246335;23;20019;-75
2023/06/30 06:04:35;;;;;;;21.77;6.68;;;;;;;16.87;100.00;101134.00;6219870;23;20339;-75
2023/06/30 06:07:05;;;;;;;21.35;7.30;;;;;;;17.36;100.00;101133.63;6245747;23;20012;-75
2023/06/30 06:09:31;;;;;;;23.05;7.38;;;;;;;17.62;100.00;101140.09;6194058;23;20344;-75
2023/06/30 06:11:57;;;;;;;18.00;5.30;;;;;;;18.37;100.00;101142.34;6193960;23;20107;-75
2023/06/30 06:14:22;;;;;;;16.05;6.53;;;;;;;17.72;100.00;101147.44;6219128;23;20472;-75
2023/06/30 06:16:47;;;;;;;17.30;5.45;;;;;;;18.30;100.00;101141.28;6218899;23;20012;-75
2023/06/30 06:19:17;;;;;;;14.32;5.30;;;;;;;17.98;100.00;101153.03;6245844;23;20375;-75
2023/06/30 06:21:42;;;;;;;20.15;5.85;;;;;;;18.01;100.00;101147.16;6194517;23;20444;-75
2023/06/30 06:24:08;;;;;;;18.13;5.25;;;;;;;18.39;100.00;101160.72;6219097;23;20011;-75
2023/06/30 06:26:33;;;;;;;18.50;5.00;;;;;;;18.53;100.00;101149.88;6194053;23;20044;-74
2023/06/30 06:28:59;;;;;;;15.88;5.13;;;;;;;18.47;100.00;101156.09;6194095;23;20016;-75
2023/06/30 06:31:27;;;;;;;15.13;4.60;;;;;;;18.57;100.00;101146.78;6193739;23;20013;-75
2023/06/30 06:33:52;;;;;;;20.25;4.85;;;;;;;18.72;100.00;101154.28;6245575;23;20012;-75
2023/06/30 06:36:18;;;;;;;12.02;4.72;;;;;;;18.94;100.00;101157.53;6193913;23;20012;-74
2023/06/30 06:38:43;;;;;;;18.25;4.95;;;;;;;18.99;100.00;101159.75;6218640;23;20012;-75
2023/06/30 06:41:08;;;;;;;12.27;4.40;;;;;;;19.14;100.00;101154.44;6218650;23;20337;-74
2023/06/30 06:43:34;;;;;;;10.27;4.38;;;;;;;19.89;100.00;101147.88;6218754;23;20019;-75
2023/06/30 06:45:59;;;;;;;13.98;4.10;;;;;;;19.62;100.00;101153.59;6218592;23;20008;-75
2023/06/30 06:48:28;;;;;;;25.73;6.35;;;;;;;20.52;100.00;101154.53;6218631;23;20384;-74
2023/06/30 06:50:59;;;;;;;10.93;4.40;;;;;;;19.88;100.00;101160.06;6245632;23;20078;-75
2023/06/30 06:53:30;;;;;;;13.98;4.20;;;;;;;19.50;100.00;101154.16;6193087;23;20014;-75
2023/06/30 06:55:57;;;;;;;17.10;4.65;;;;;;;20.93;100.00;101154.38;6218851;23;20385;-75
2023/06/30 06:58:24;;;;;;;13.73;5.03;;;;;;;19.72;100.00;101152.56;6193401;23;20019;-75
2023/06/30 07:00:51;;;;;;;14.50;4.53;;;;;;;19.61;100.00;101140.78;6193836;23;20435;-75
2023/06/30 07:03:17;;;;;;;11.35;3.17;;;;;;;20.72;100.00;101139.16;6193735;23;20011;-75
2023/06/30 07:05:46;;;;;;;9.43;3.42;;;;;;;20.30;100.00;101145.91;6218695;23;20004;-75
2023/06/30 07:08:12;;;;;;;9.70;3.67;;;;;;;20.72;100.00;101147.50;6245204;23;20015;-75
2023/06/30 07:10:38;;;;;;;12.77;3.63;;;;;;;20.45;100.00;101146.03;6218520;23;20070;-75
2023/06/30 07:13:04;;;;;;;9.75;3.42;;;;;;;20.64;100.00;101141.13;6218634;23;20012;-74
2023/06/30 07:15:30;;;;;;;11.13;3.97;;;;;;;21.14;100.00;101155.66;6168516;23;20035;-74
2023/06/30 07:17:56;;;;;;;6.72;2.70;;;;;;;20.96;99.94;101155.94;6193866;23;20038;-75
2023/06/30 07:20:23;;;;;;;12.75;3.15;;;;;;;20.59;100.00;101157.44;6193050;23;20020;-75
2023/06/30 07:22:48;;;;;;;9.38;3.03;;;;;;;21.23;100.00;101157.31;6193247;23;20004;-75
2023/06/30 07:25:14;;;;;;;11.48;3.58;;;;;;;21.73;92.46;101155.91;6218959;23;20008;-75
2023/06/30 07:27:40;;;;;;;8.50;2.80;;;;;;;21.20;99.22;101160.47;6193256;23;20008;-75
2023/06/30 07:30:06;;;;;;;9.25;2.83;;;;;;;21.37;94.14;101169.59;6193141;23;20016;-75
2023/06/30 07:32:34;;;;;;;11.60;2.83;;;;;;;21.69;89.52;101167.63;6218346;23;20420;-75
2023/06/30 07:35:02;;;;;;;13.50;2.45;;;;;;;21.68;95.20;101158.41;6245159;23;20095;-75
2023/06/30 07:37:27;;;;;;;10.05;2.63;;;;;;;21.67;92.59;101160.31;6218611;23;20011;-75
2023/06/30 07:39:53;;;;;;;11.13;2.80;;;;;;;20.66;93.78;101159.38;6193644;23;20100;-75
2023/06/30 07:42:18;;;;;;;7.78;2.72;;;;;;;21.94;91.43;101168.25;6193467;23;20031;-74
2023/06/30 07:44:44;;;;;;;8.05;2.78;;;;;;;22.07;88.85;101164.84;6245195;23;20020;-75
2023/06/30 07:47:09;;;;;;;6.07;3.28;;;;;;;22.52;86.04;101162.97;6245336;23;20008;-75
2023/06/30 07:49:35;;;;;;;10.90;2.65;;;;;;;22.74;82.33;101158.34;6218615;23;20083;-75
2023/06/30 07:52:00;;;;;;;6.78;2.55;;;;;;;21.42;85.63;101158.75;6193275;23;20008;-75
2023/06/30 07:54:26;;;;;;;8.00;2.38;;;;;;;21.21;88.73;101165.00;6218529;23;20074;-75
2023/06/30 07:56:51;;;;;;;8.70;2.22;;;;;;;21.61;87.30;101157.41;6218270;23;20008;-75
2023/06/30 07:59:16;;;;;;;10.80;2.20;;;;;;;22.01;87.89;101160.88;6244753;23;20008;-75
2023/06/30 08:01:45;;;;;;;7.63;1.90;;;;;;;22.37;81.47;101158.25;6193266;23;20040;-75
2023/06/30 08:04:11;;;;;;;8.93;1.83;;;;;;;24.01;67.43;101159.75;6193177;23;20140;-74
2023/06/30 08:06:36;;;;;;;10.45;2.38;;;;;;;22.59;77.11;101152.78;6194808;23;20039;-75
2023/06/30 08:09:02;;;;;;;9.07;1.67;;;;;;;21.95;72.40;101151.34;6220129;23;20455;-75
2023/06/30 08:11:27;;;;;;;11.45;1.67;;;;;;;22.22;70.74;101157.38;6245525;23;20020;-75
2023/06/30 08:13:52;;;;;;;8.02;1.60;;;;;;;21.80;77.51;101159.69;6195201;23;20088;-75
2023/06/30 08:16:18;;;;;;;5.03;1.85;;;;;;;23.12;65.35;101164.66;6195252;23;20083;-75
2023/06/30 08:18:43;;;;;;;5.07;1.33;;;;;;;22.91;72.28;101159.00;6220108;23;20012;-75
2023/06/30 08:21:09;;;;;;;9.07;1.85;;;;;;;22.97;69.23;101160.97;6173468;23;20100;-75
2023/06/30 08:23:34;;;;;;;7.60;1.55;;;;;;;22.53;67.18;101161.91;6184747;23;20469;-75
2023/06/30 08:26:00;;;;;;;6.85;1.17;;;;;;;22.89;63.75;101156.41;6135459;23;20040;-75
2023/06/30 08:28:25;;;;;;;4.88;1.40;;;;;;;22.70;64.32;101157.84;6186435;23;20041;-75
2023/06/30 08:30:51;;;;;;;4.60;1.25;;;;;;;22.87;67.33;101152.91;6186191;23;20167;-75
2023/06/30 08:33:16;;;;;;;5.57;1.20;;;;;;;22.89;65.94;101152.72;6160109;23;20017;-75
2023/06/30 08:35:44;;;;;;;7.55;1.20;;;;;;;24.00;61.61;101156.06;6186258;23;20528;-75
2023/06/30 08:38:10;;;;;;;6.75;1.40;;;;;;;24.05;60.49;101152.66;6160581;23;20020;-75
2023/06/30 08:40:35;;;;;;;11.65;2.03;;;;;;;24.22;59.72;101156.91;6159803;23;20008;-75
2023/06/30 08:43:11;;;;;;;7.47;1.65;;;;;;;24.70;56.20;101153.34;6184793;23;20433;-75
2023/06/30 08:45:39;;;;;;;9.13;1.70;;;;;;;23.28;61.75;101138.41;6184530;23;20033;-75
2023/06/30 08:48:05;;;;;;;2.83;1.10;;;;;;;23.94;65.81;101142.03;6186169;23;20005;-75
2023/06/30 08:50:35;;;;;;;5.90;1.55;;;;;;;24.21;59.16;101148.69;6184869;23;20043;-75
2023/06/30 08:53:01;;;;;;;9.00;1.50;;;;;;;21.87;65.12;101140.28;6186191;23;20064;-75
2023/06/30 08:55:27;;;;;;;5.30;1.40;;;;;;;22.12;65.74;101140.91;6159619;23;20441;-74
2023/06/30 08:57:56;;;;;;;6.05;1.35;;;;;;;22.12;61.73;101138.13;6186088;23;20092;-75
2023/06/30 09:00:23;;;;;;;4.53;1.23;;;;;;;22.81;63.15;101133.28;6184721;23;20120;-73
2023/06/30 09:02:49;;;;;;;4.28;1.30;;;;;;;22.86;65.47;101137.25;6184675;23;20104;-74
2023/06/30 09:05:15;;;;;;;9.55;1.75;;;;;;;23.13;61.46;101130.06;6184508;23;20441;-74
2023/06/30 09:07:56;;;;;;;5.13;1.60;;;;;;;23.23;59.68;101128.88;6186238;23;20035;-77
2023/06/30 09:10:25;;;;;;;6.07;2.05;;;;;;;22.84;62.05;101127.31;6184722;23;20072;-75
2023/06/30 09:12:54;;;;;;;3.47;1.45;;;;;;;22.45;67.47;101123.81;6184673;23;20084;-74
2023/06/30 09:15:20;;;;;;;7.72;1.92;;;;;;;23.04;65.73;101128.44;6185044;23;20009;-75
2023/06/30 09:17:46;;;;;;;7.43;1.50;;;;;;;22.34;65.31;101124.31;6185964;23;20005;-73
2023/06/30 09:20:13;;;;;;;11.82;2.10;;;;;;;22.43;65.26;101119.47;6193138;23;20020;-74
2023/06/30 09:22:45;;;;;;;7.30;1.58;;;;;;;22.67;64.20;101113.59;6218097;23;20432;-73
2023/06/30 09:25:25;;;;;;;7.35;1.83;;;;;;;22.84;62.89;101118.94;6245661;23;20019;-73
2023/06/30 09:27:51;;;;;;;6.00;1.77;;;;;;;22.62;61.20;101113.31;6244678;23;20019;-73
2023/06/30 09:30:17;;;;;;;4.00;1.40;;;;;;;23.07;61.70;101127.19;6192425;23;20007;-74
2023/06/30 09:32:43;;;;;;;5.13;1.75;;;;;;;22.53;61.46;101117.25;6217665;23;20417;-74
2023/06/30 09:35:12;;;;;;;6.03;1.38;;;;;;;22.96;59.11;101128.56;6217600;23;20059;-74
2023/06/30 09:37:44;;;;;;;7.25;2.42;;;;;;;22.78;58.46;101122.53;6217909;23;20064;-74
2023/06/30 09:40:14;;;;;;;7.82;1.40;;;;;;;23.41;59.35;101120.03;6217926;23;20008;-73
2023/06/30 09:42:51;;;;;;;3.20;1.40;;;;;;;22.74;59.82;101122.03;6217733;23;20004;-74
2023/06/30 09:45:16;;;;;;;4.78;1.40;;;;;;;23.03;60.08;101107.13;6217726;23;20008;-74
2023/06/30 09:47:45;;;;;;;7.38;1.85;;;;;;;23.41;61.38;101111.66;6217874;23;20014;-74
2023/06/30 09:50:11;;;;;;;5.78;1.40;;;;;;;24.13;58.85;101104.94;6218450;23;20495;-74
2023/06/30 09:52:37;;;;;;;5.30;1.70;;;;;;;23.16;57.41;101098.06;6217622;23;20016;-74
2023/06/30 09:55:08;;;;;;;6.45;1.80;;;;;;;23.87;56.75;101108.41;6192976;23;20012;-74
2023/06/30 09:57:37;;;;;;;5.05;1.63;;;;;;;23.42;58.15;101110.59;6244499;23;20015;-74
2023/06/30 10:00:04;;;;;;;5.50;1.80;;;;;;;23.80;53.96;101107.47;6244716;23;20016;-74
2023/06/30 10:02:31;;;;;;;9.43;1.67;;;;;;;23.52;58.76;101099.06;6245643;23;20044;-74
2023/06/30 10:04:56;;;;;;;4.90;1.50;;;;;;;23.91;57.35;101095.78;6218131;23;20012;-74
2023/06/30 10:07:23;;;;;;;12.10;2.00;;;;;;;23.47;61.54;101099.69;6244460;23;20019;-74
2023/06/30 10:09:50;;;;;;;5.15;1.67;;;;;;;23.35;54.79;101104.94;6217491;23;20016;-74
2023/06/30 10:12:18;;;;;;;7.72;1.83;;;;;;;23.05;56.85;101101.34;6217684;23;20035;-74
2023/06/30 10:14:44;;;;;;;6.30;1.60;;;;;;;22.37;60.87;101108.03;6192735;23;20012;-74
2023/06/30 10:17:11;;;;;;;6.13;2.10;;;;;;;22.13;58.52;101102.72;6192564;23;20019;-74
2023/06/30 10:19:39;;;;;;;5.20;1.75;;;;;;;21.83;61.38;101103.53;6217390;23;20004;-74
2023/06/30 10:22:05;;;;;;;7.40;1.65;;;;;;;22.06;63.08;101108.19;6167604;23;1198520;-75
2023/06/30 10:24:41;;;;;;;11.15;1.95;;;;;;;23.46;59.26;101098.81;6218747;23;20044;-74
2023/06/30 10:27:09;;;;;;;3.88;1.90;;;;;;;24.37;56.08;101103.59;6218827;23;20008;-75
2023/06/30 10:29:35;;;;;;;8.40;1.52;;;;;;;25.07;52.43;101099.81;6245724;23;20065;-75
2023/06/30 10:32:02;;;;;;;7.93;2.08;;;;;;;24.61;58.51;101095.75;6245665;23;20016;-75
2023/06/30 10:34:29;;;;;;;9.38;2.15;;;;;;;24.48;54.79;101090.97;6193533;23;20343;-76
2023/06/30 10:36:54;;;;;;;6.20;2.10;;;;;;;24.04;51.84;101086.63;6194360;23;20019;-74
2023/06/30 10:39:32;;;;;;;6.20;1.70;;;;;;;23.82;54.90;101075.47;6218852;23;20008;-75
2023/06/30 10:41:58;;;;;;;2.60;1.70;;;;;;;22.82;56.55;101073.59;6244268;23;20011;-75
2023/06/30 10:44:39;;;;;;;8.13;2.30;;;;;;;22.23;59.50;101069.81;6193696;23;20463;-74
2023/06/30 10:47:05;;;;;;;3.15;1.75;;;;;;;21.93;59.28;101086.53;6245814;23;20032;-75
2023/06/30 10:49:35;;;;;;;9.57;2.15;;;;;;;22.70;59.03;101078.84;6219746;23;20340;-75
2023/06/30 10:52:25;;;;;;;7.47;1.80;;;;;;;23.44;51.45;101081.38;6245244;23;20455;-75
2023/06/30 10:54:50;;;;;;;4.07;1.63;;;;;;;23.55;53.81;101071.59;6179377;23;20019;-76
2023/06/30 10:57:20;;;;;;;8.20;2.03;;;;;;;23.90;53.04;101071.66;6218434;23;20008;-75
2023/06/30 10:59:47;;;;;;;8.20;2.30;;;;;;;24.11;56.34;101067.06;6193272;23;20004;-75
2023/06/30 11:02:21;;;;;;;4.75;1.98;;;;;;;24.53;53.14;101063.19;6245259;23;20091;-75
2023/06/30 11:04:49;;;;;;;6.93;1.92;;;;;;;24.47;54.46;101063.16;6218476;23;20008;-75
2023/06/30 11:07:26;;;;;;;9.20;2.30;;;;;;;23.81;57.20;101056.09;6245390;23;20011;-75
2023/06/30 11:09:51;;;;;;;7.60;1.77;;;;;;;23.84;57.16;101064.06;6193927;23;20026;-76
2023/06/30 11:12:25;;;;;;;6.68;2.15;;;;;;;23.94;56.15;101053.41;6245147;23;20083;-75